Time;durP1;ratioP1;P1;durP2;ratioP2;P2;SDS_P1;SDS_P2;PMS_P1;PMS_P2;Temp;Humidity;BMP_temperature;BMP_pressure;BME280_temperature;BME280_humidity;BME280_pressure;Samples;Min_cycle;Max_cycle;Signal;HPM_P1;HPM_P2
2023/04/02 00:00:27;;;;;;;5.45;2.30;;;4.70;99.90;;;;;;5135178;27;20398;-63
2023/04/02 00:02:53;;;;;;;4.68;1.90;;;4.70;99.90;;;;;;5116474;27;20043;-64
2023/04/02 00:05:33;;;;;;;4.80;1.63;;;4.80;99.90;;;;;;5134735;27;20406;-63
2023/04/02 00:08:01;;;;;;;4.72;2.35;;;4.70;99.90;;;;;;5134750;27;20129;-63
2023/04/02 00:10:37;;;;;;;5.95;1.95;;;4.70;99.90;;;;;;5135059;27;20479;-63
2023/04/02 00:13:16;;;;;;;4.18;1.80;;;4.60;99.90;;;;;;5134712;27;20039;-63
2023/04/02 00:15:45;;;;;;;4.35;1.80;;;4.60;99.90;;;;;;5134532;27;20173;-63
2023/04/02 00:18:20;;;;;;;2.28;1.48;;;4.50;99.90;;;;;;5134472;27;20055;-63
2023/04/02 00:20:53;;;;;;;4.43;2.13;;;4.60;99.90;;;;;;5116173;27;20501;-64
2023/04/02 00:23:19;;;;;;;2.60;1.65;;;5.20;99.90;;;;;;5134724;27;20510;-64
2023/04/02 00:25:46;;;;;;;2.97;1.40;;;4.50;99.90;;;;;;5134708;27;20031;-63
2023/04/02 00:28:17;;;;;;;2.83;1.50;;;4.40;99.90;;;;;;5134269;27;20031;-63
2023/04/02 00:30:57;;;;;;;3.58;1.50;;;4.40;99.90;;;;;;5134477;27;20046;-63
2023/04/02 00:33:27;;;;;;;2.63;1.55;;;4.20;99.90;;;;;;5116221;27;20078;-64
2023/04/02 00:35:54;;;;;;;3.95;1.58;;;5.20;99.90;;;;;;5116190;27;20488;-63
2023/04/02 00:38:28;;;;;;;4.15;1.40;;;4.40;99.90;;;;;;5134190;27;20126;-63
2023/04/02 00:40:57;;;;;;;3.08;1.45;;;4.40;99.90;;;;;;5115731;27;20398;-63
2023/04/02 00:43:26;;;;;;;2.65;1.20;;;4.30;99.90;;;;;;5134467;27;20278;-63
2023/04/02 00:46:00;;;;;;;3.22;1.55;;;4.20;99.90;;;;;;5133790;27;20035;-63
2023/04/02 00:48:31;;;;;;;1.80;1.23;;;4.40;99.90;;;;;;5134052;27;20080;-63
2023/04/02 00:51:11;;;;;;;5.50;2.13;;;4.50;99.90;;;;;;5134010;27;20045;-63
2023/04/02 00:53:39;;;;;;;2.87;1.57;;;4.30;99.90;;;;;;5134371;27;20035;-63
2023/04/02 00:56:19;;;;;;;2.33;1.45;;;4.40;99.90;;;;;;5133849;27;20031;-63
2023/04/02 00:58:51;;;;;;;1.58;1.15;;;4.00;99.90;;;;;;5134248;27;20457;-63
2023/04/02 01:01:21;;;;;;;4.15;1.48;;;3.90;99.90;;;;;;5133975;27;20387;-63
2023/04/02 01:04:00;;;;;;;2.30;1.60;;;3.70;99.90;;;;;;5133750;27;20038;-63
2023/04/02 01:06:33;;;;;;;1.73;1.10;;;3.60;99.90;;;;;;5115404;27;20055;-63
2023/04/02 01:09:13;;;;;;;2.63;1.27;;;3.60;99.90;;;;;;5133716;27;20030;-63
2023/04/02 01:12:16;;;;;;;2.40;1.38;;;3.50;99.90;;;;;;5134075;27;20478;-63
2023/04/02 01:15:00;;;;;;;3.08;1.30;;;3.40;99.90;;;;;;5134040;27;20043;-63
2023/04/02 01:17:47;;;;;;;2.65;1.30;;;3.40;99.90;;;;;;5133293;27;20108;-63
2023/04/02 01:20:50;;;;;;;1.73;1.20;;;3.30;99.90;;;;;;5133540;28;20078;-63
2023/04/02 01:23:22;;;;;;;4.18;1.83;;;3.20;99.90;;;;;;5115248;28;20123;-63
2023/04/02 01:26:08;;;;;;;1.95;1.25;;;3.10;99.90;;;;;;5133713;28;20035;-63
2023/04/02 01:28:55;;;;;;;3.25;1.30;;;3.10;99.90;;;;;;5133804;28;20045;-63
2023/04/02 01:31:22;;;;;;;2.38;1.30;;;3.00;99.90;;;;;;5133464;28;20035;-64
2023/04/02 01:33:48;;;;;;;4.63;1.55;;;2.90;99.90;;;;;;5133848;28;20049;-63
2023/04/02 01:36:19;;;;;;;2.08;1.15;;;2.90;99.90;;;;;;5133417;28;20542;-63
2023/04/02 01:38:48;;;;;;;;;;;2.90;99.90;;;;;;5115894;28;20118;-63
2023/04/02 01:41:29;;;;;;;1.33;1.05;;;2.90;99.90;;;;;;5133461;28;19919;-63
2023/04/02 01:44:03;;;;;;;3.70;1.42;;;2.80;99.90;;;;;;5114769;28;20064;-63
2023/04/02 01:46:37;;;;;;;2.83;1.20;;;2.80;99.90;;;;;;5133649;28;20398;-63
2023/04/02 01:49:20;;;;;;;3.97;1.70;;;2.70;99.90;;;;;;5133533;28;20390;-63
2023/04/02 01:51:51;;;;;;;3.17;1.45;;;2.70;99.90;;;;;;5133539;28;20036;-63
2023/04/02 01:54:19;;;;;;;2.38;1.15;;;2.60;99.90;;;;;;5133572;28;20054;-63
2023/04/02 01:56:46;;;;;;;5.85;1.50;;;2.60;99.90;;;;;;5133511;28;20035;-63
2023/04/02 01:59:13;;;;;;;4.05;1.60;;;2.60;99.90;;;;;;5135244;27;20047;-63
2023/04/02 02:01:55;;;;;;;2.40;1.33;;;2.50;99.90;;;;;;5119168;27;20042;-63
2023/04/02 02:04:21;;;;;;;2.35;1.50;;;2.50;99.90;;;;;;5137482;27;20114;-63
2023/04/02 02:06:47;;;;;;;4.75;1.60;;;2.50;99.90;;;;;;5137324;27;20138;-63
2023/04/02 02:09:20;;;;;;;2.25;1.33;;;2.40;99.90;;;;;;5118677;27;20043;-63
2023/04/02 02:11:46;;;;;;;1.52;1.08;;;2.40;99.90;;;;;;5137389;27;20073;-63
2023/04/02 02:14:20;;;;;;;1.75;1.05;;;2.40;99.90;;;;;;5137229;27;20039;-63
2023/04/02 02:16:47;;;;;;;4.22;1.35;;;2.30;99.90;;;;;;5136866;27;20429;-63
2023/04/02 02:19:28;;;;;;;2.15;1.20;;;2.30;99.90;;;;;;5119088;27;20474;-63
2023/04/02 02:22:05;;;;;;;;;;;2.20;99.90;;;;;;5137646;27;20042;-63
2023/04/02 02:24:34;;;;;;;3.15;1.10;;;2.20;99.90;;;;;;5137211;27;19916;-63
2023/04/02 02:27:27;;;;;;;2.22;0.85;;;2.20;99.90;;;;;;5137013;27;20035;-63
2023/04/02 02:30:04;;;;;;;1.83;1.00;;;2.20;99.90;;;;;;5136938;27;20039;-63
2023/04/02 02:32:32;;;;;;;4.45;1.50;;;2.10;99.90;;;;;;5136984;27;20046;-64
2023/04/02 02:35:03;;;;;;;1.27;0.80;;;2.10;99.90;;;;;;5136598;27;20046;-63
2023/04/02 02:37:34;;;;;;;3.22;0.90;;;2.10;99.90;;;;;;5118164;27;20134;-64
2023/04/02 02:40:04;;;;;;;2.60;1.10;;;2.00;99.90;;;;;;5117915;27;20428;-63
2023/04/02 02:42:46;;;;;;;1.75;0.82;;;2.00;99.90;;;;;;5118134;27;20097;-63
2023/04/02 02:45:18;;;;;;;0.75;0.60;;;2.00;99.90;;;;;;5136787;27;20035;-63
2023/04/02 02:47:44;;;;;;;1.20;0.70;;;2.00;99.90;;;;;;5136763;27;20043;-63
2023/04/02 02:50:22;;;;;;;1.95;0.82;;;2.00;99.90;;;;;;5136676;27;20039;-63
2023/04/02 02:52:54;;;;;;;2.63;0.90;;;2.00;99.90;;;;;;5117762;27;20503;-63
2023/04/02 02:55:21;;;;;;;;;;;2.00;99.90;;;;;;5136941;27;20118;-64
2023/04/02 02:57:52;;;;;;;2.28;0.95;;;2.00;99.90;;;;;;5136458;27;19920;-66
2023/04/02 03:00:19;;;;;;;1.98;0.95;;;2.00;99.90;;;;;;5136364;27;20042;-63
2023/04/02 03:02:46;;;;;;;2.88;1.10;;;2.00;99.90;;;;;;5136385;27;20031;-63
2023/04/02 03:05:22;;;;;;;4.55;0.73;;;2.10;99.90;;;;;;5136348;27;20035;-63
2023/04/02 03:07:52;;;;;;;2.45;0.85;;;2.00;99.90;;;;;;5136383;27;20494;-63
2023/04/02 03:10:57;;;;;;;1.63;1.10;;;2.10;99.90;;;;;;5117178;27;20051;-63
2023/04/02 03:13:28;;;;;;;2.42;1.00;;;2.10;99.90;;;;;;5135245;27;20054;-63
2023/04/02 03:15:56;;;;;;;2.85;0.90;;;2.10;99.90;;;;;;5135903;27;20039;-63
2023/04/02 03:18:49;;;;;;;2.80;1.13;;;2.20;99.90;;;;;;5135617;27;20402;-65
2023/04/02 03:21:33;;;;;;;1.25;0.60;;;2.20;99.90;;;;;;5117832;27;20072;-68
2023/04/02 03:24:04;;;;;;;2.15;0.77;;;2.20;99.90;;;;;;5135968;27;20039;-63
2023/04/02 03:26:51;;;;;;;3.20;1.25;;;2.20;99.90;;;;;;5117628;27;20047;-63
2023/04/02 03:29:26;;;;;;;1.23;0.70;;;2.20;99.90;;;;;;5135688;27;20086;-63
2023/04/02 03:32:15;;;;;;;2.15;0.90;;;2.20;99.90;;;;;;5135676;27;20066;-63
2023/04/02 03:34:58;;;;;;;6.30;0.80;;;2.20;99.90;;;;;;5135745;27;20035;-63
2023/04/02 03:37:43;;;;;;;1.40;0.80;;;2.20;99.90;;;;;;5117076;27;20047;-63
2023/04/02 03:40:36;;;;;;;0.40;0.40;;;2.20;99.90;;;;;;5135536;27;20462;-64
2023/04/02 03:43:24;;;;;;;2.25;0.70;;;2.20;99.90;;;;;;5124636;27;20043;-64
2023/04/02 03:46:07;;;;;;;3.25;0.65;;;2.20;99.90;;;;;;5135501;27;20039;-63
2023/04/02 03:48:47;;;;;;;1.30;0.90;;;2.10;99.90;;;;;;5135476;27;20456;-63
2023/04/02 03:51:31;;;;;;;0.87;0.57;;;2.10;99.90;;;;;;5135367;27;20050;-63
2023/04/02 03:53:56;;;;;;;1.30;0.75;;;2.10;99.90;;;;;;5116360;27;20280;-63
2023/04/02 03:56:40;;;;;;;2.03;0.60;;;2.10;99.90;;;;;;5134915;27;20440;-63
2023/04/02 03:59:12;;;;;;;1.02;0.60;;;1.90;99.90;;;;;;5135224;27;20031;-63
2023/04/02 04:01:48;;;;;;;0.65;0.50;;;1.80;99.90;;;;;;5135314;27;20084;-63
2023/04/02 04:04:18;;;;;;;6.15;0.77;;;1.70;99.90;;;;;;5116660;27;20096;-64
2023/04/02 04:06:47;;;;;;;2.15;0.60;;;1.70;99.90;;;;;;5135081;27;20525;-63
2023/04/02 04:09:22;;;;;;;0.65;0.50;;;1.60;99.90;;;;;;5134796;27;20050;-63
2023/04/02 04:11:52;;;;;;;1.63;0.70;;;1.60;99.90;;;;;;5116327;27;20047;-63
2023/04/02 04:14:33;;;;;;;2.30;0.80;;;1.60;99.90;;;;;;5134914;27;20367;-63
2023/04/02 04:17:23;;;;;;;3.40;0.88;;;1.50;99.90;;;;;;5134645;27;20448;-63
2023/04/02 04:20:20;;;;;;;1.35;0.88;;;1.50;99.90;;;;;;5133790;27;20054;-63
2023/04/02 04:22:48;;;;;;;2.15;0.50;;;1.40;99.90;;;;;;5116955;27;20421;-64
2023/04/02 04:25:21;;;;;;;1.95;0.70;;;1.40;99.90;;;;;;5134604;27;20039;-64
2023/04/02 04:28:04;;;;;;;0.63;0.50;;;1.30;99.90;;;;;;5134757;27;20390;-63
2023/04/02 04:30:41;;;;;;;6.00;1.05;;;1.30;99.90;;;;;;5134589;27;20432;-64
2023/04/02 04:33:24;;;;;;;1.00;0.68;;;1.30;99.90;;;;;;5134623;27;20484;-63
2023/04/02 04:35:55;;;;;;;1.45;0.40;;;1.30;99.90;;;;;;5134307;27;20482;-63
2023/04/02 04:38:33;;;;;;;1.20;0.63;;;1.20;99.90;;;;;;5134618;27;20050;-63
2023/04/02 04:41:15;;;;;;;1.38;0.60;;;1.20;99.90;;;;;;5116305;27;20108;-63
2023/04/02 04:43:50;;;;;;;5.78;0.90;;;1.20;99.90;;;;;;5134504;27;20046;-63
2023/04/02 04:46:38;;;;;;;2.17;0.90;;;1.20;99.90;;;;;;5134405;27;20039;-63
2023/04/02 04:49:10;;;;;;;2.10;0.50;;;1.20;99.90;;;;;;5134332;27;20066;-63
2023/04/02 04:51:53;;;;;;;0.60;0.35;;;1.20;99.90;;;;;;5134397;27;20035;-63
2023/04/02 04:54:19;;;;;;;1.95;0.68;;;1.20;99.90;;;;;;5134303;27;20047;-63
2023/04/02 04:56:48;;;;;;;3.03;0.73;;;1.20;99.90;;;;;;5134252;27;20035;-63
2023/04/02 04:59:25;;;;;;;0.73;0.40;;;1.20;99.90;;;;;;5134230;27;20039;-63
2023/04/02 05:02:02;;;;;;;0.85;0.43;;;1.10;99.90;;;;;;5134009;27;20160;-63
2023/04/02 05:04:35;;;;;;;0.63;0.50;;;1.10;99.90;;;;;;5134149;27;20039;-63
2023/04/02 05:07:12;;;;;;;2.92;0.63;;;1.20;99.90;;;;;;5134141;27;20035;-64
2023/04/02 05:10:00;;;;;;;0.68;0.38;;;1.10;99.90;;;;;;5134106;27;20058;-63
2023/04/02 05:12:34;;;;;;;2.35;0.43;;;1.10;99.90;;;;;;5134068;27;20155;-63
2023/04/02 05:15:26;;;;;;;0.43;0.40;;;1.10;99.90;;;;;;5133663;27;20069;-63
2023/04/02 05:18:10;;;;;;;0.43;0.40;;;1.10;99.90;;;;;;5129146;27;20514;-63
2023/04/02 05:20:53;;;;;;;1.85;0.60;;;1.10;99.90;;;;;;5133879;27;20043;-63
2023/04/02 05:23:27;;;;;;;2.97;0.82;;;1.10;99.90;;;;;;5133897;28;20041;-63
2023/04/02 05:26:01;;;;;;;0.70;0.40;;;1.10;99.90;;;;;;5133957;28;20074;-63
2023/04/02 05:28:39;;;;;;;0.35;0.30;;;1.10;99.90;;;;;;5133833;28;20371;-63
2023/04/02 05:31:29;;;;;;;2.53;1.02;;;1.10;99.90;;;;;;5133652;28;20046;-63
2023/04/02 05:33:55;;;;;;;5.00;0.70;;;1.20;99.90;;;;;;5136985;27;20039;-63
2023/04/02 05:36:28;;;;;;;1.23;0.60;;;1.60;99.90;;;;;;5137950;27;20428;-63
2023/04/02 05:38:55;;;;;;;1.13;0.50;;;1.30;99.90;;;;;;5138016;27;20043;-63
2023/04/02 05:41:40;;;;;;;0.65;0.65;;;1.20;99.90;;;;;;5137977;27;20121;-63
2023/04/02 05:44:30;;;;;;;0.73;0.57;;;1.30;99.90;;;;;;5137885;27;20026;-63
2023/04/02 05:47:03;;;;;;;1.55;0.40;;;1.40;99.90;;;;;;5137470;27;20104;-63
2023/04/02 05:49:43;;;;;;;1.05;0.43;;;1.40;99.90;;;;;;5137529;27;20042;-63
2023/04/02 05:52:16;;;;;;;1.00;0.35;;;1.40;99.90;;;;;;5137599;27;20424;-63
2023/04/02 05:54:50;;;;;;;1.73;0.63;;;1.40;99.90;;;;;;5137754;27;20486;-63
2023/04/02 05:57:20;;;;;;;1.33;0.55;;;1.50;99.90;;;;;;5137422;27;20043;-63
2023/04/02 05:59:52;;;;;;;1.08;0.63;;;1.50;99.90;;;;;;5137494;27;20430;-63
2023/04/02 06:02:52;;;;;;;0.70;0.40;;;1.60;99.90;;;;;;5137310;27;20043;-63
2023/04/02 06:05:38;;;;;;;1.00;0.55;;;1.70;99.90;;;;;;5136920;27;20039;-63
2023/04/02 06:08:16;;;;;;;1.33;0.60;;;1.80;99.90;;;;;;5137222;27;20126;-64
2023/04/02 06:10:49;;;;;;;0.52;0.45;;;2.20;99.90;;;;;;5136962;27;20047;-63
2023/04/02 06:13:17;;;;;;;0.82;0.50;;;1.90;99.90;;;;;;5137197;27;20085;-63
2023/04/02 06:15:43;;;;;;;1.55;0.60;;;2.00;99.90;;;;;;5137411;27;20086;-63
2023/04/02 06:18:30;;;;;;;0.43;0.43;;;2.00;99.90;;;;;;5136761;27;20051;-63
2023/04/02 06:20:55;;;;;;;2.13;0.90;;;2.10;99.90;;;;;;5118237;27;20038;-63
2023/04/02 06:23:31;;;;;;;3.33;0.43;;;2.20;99.90;;;;;;5137057;27;20095;-63
2023/04/02 06:26:20;;;;;;;1.48;0.65;;;2.30;99.90;;;;;;5136831;27;20034;-63
2023/04/02 06:28:58;;;;;;;1.08;0.85;;;2.40;99.90;;;;;;5136856;27;20039;-63
2023/04/02 06:31:32;;;;;;;0.68;0.50;;;2.40;99.90;;;;;;5137008;27;20122;-64
2023/04/02 06:33:58;;;;;;;5.75;0.75;;;2.50;99.90;;;;;;5136693;27;20123;-63
2023/04/02 06:36:27;;;;;;;0.88;0.50;;;2.60;99.90;;;;;;5136641;27;20126;-63
2023/04/02 06:38:57;;;;;;;0.57;0.40;;;2.70;99.90;;;;;;5118341;27;20122;-63
2023/04/02 06:41:24;;;;;;;0.47;0.47;;;2.80;99.90;;;;;;5136820;27;20062;-63
2023/04/02 06:44:08;;;;;;;2.35;0.77;;;2.90;99.90;;;;;;5136246;27;20027;-63
2023/04/02 06:46:47;;;;;;;1.77;0.75;;;3.00;99.90;;;;;;5136814;27;20129;-63
2023/04/02 06:49:22;;;;;;;0.75;0.45;;;3.10;99.90;;;;;;5136290;27;20035;-63
2023/04/02 06:51:51;;;;;;;3.15;0.70;;;3.20;99.90;;;;;;5136505;27;20125;-63
2023/04/02 06:54:17;;;;;;;1.88;0.68;;;3.20;99.90;;;;;;5136563;27;20058;-63
2023/04/02 06:56:55;;;;;;;1.25;0.73;;;3.30;99.90;;;;;;5136423;27;20533;-63
2023/04/02 06:59:21;;;;;;;1.10;0.65;;;3.40;99.90;;;;;;5117715;27;20047;-63
2023/04/02 07:02:24;;;;;;;1.20;0.40;;;3.70;99.90;;;;;;5101154;27;20074;-64
2023/04/02 07:04:50;;;;;;;1.92;0.60;;;3.60;99.90;;;;;;5136032;27;20035;-67
2023/04/02 07:07:16;;;;;;;1.65;0.60;;;3.60;99.90;;;;;;5117162;27;20050;-65
2023/04/02 07:09:42;;;;;;;1.20;0.50;;;3.70;99.90;;;;;;5136266;27;20039;-65
2023/04/02 07:12:13;;;;;;;4.43;0.90;;;3.70;99.90;;;;;;5117701;27;20043;-65
2023/04/02 07:14:39;;;;;;;2.72;0.95;;;3.80;99.90;;;;;;5135605;27;20117;-68
2023/04/02 07:17:05;;;;;;;1.48;0.52;;;3.90;99.90;;;;;;5136259;27;20128;-68
2023/04/02 07:19:31;;;;;;;1.98;0.57;;;3.90;99.90;;;;;;5117724;27;20046;-64
2023/04/02 07:21:56;;;;;;;3.40;0.50;;;4.10;99.90;;;;;;5135756;27;20100;-63
2023/04/02 07:24:22;;;;;;;4.25;0.63;;;4.30;99.90;;;;;;5135991;27;20436;-63
2023/04/02 07:26:47;;;;;;;0.60;0.47;;;4.20;99.90;;;;;;5135494;27;20487;-63
2023/04/02 07:29:15;;;;;;;1.85;0.90;;;4.30;99.90;;;;;;5135377;27;20043;-63
2023/04/02 07:31:40;;;;;;;0.63;0.52;;;4.30;99.90;;;;;;5135351;27;20050;-64
2023/04/02 07:34:07;;;;;;;0.75;0.45;;;4.40;99.90;;;;;;5135633;27;20032;-63
2023/04/02 07:36:33;;;;;;;0.82;0.60;;;4.60;99.90;;;;;;5135212;27;20046;-64
2023/04/02 07:38:59;;;;;;;1.85;0.40;;;4.60;99.90;;;;;;5135252;27;20043;-64
2023/04/02 07:41:25;;;;;;;2.80;0.32;;;4.80;99.90;;;;;;5135498;27;20081;-65
2023/04/02 07:43:50;;;;;;;1.50;0.50;;;4.90;99.90;;;;;;5135526;27;20075;-64
2023/04/02 07:46:18;;;;;;;0.88;0.57;;;4.70;99.90;;;;;;5135393;27;20066;-64
2023/04/02 07:48:45;;;;;;;0.95;0.50;;;4.70;99.90;;;;;;5135282;27;20114;-64
2023/04/02 07:51:37;;;;;;;3.65;0.88;;;4.90;99.90;;;;;;5135295;27;20390;-63
2023/04/02 07:54:03;;;;;;;0.90;0.40;;;5.00;99.90;;;;;;5113525;27;20508;-66
2023/04/02 07:56:29;;;;;;;6.15;0.75;;;5.20;99.90;;;;;;5133653;27;20039;-64
2023/04/02 07:58:55;;;;;;;2.20;0.70;;;5.30;75.80;;;;;;5134995;27;20038;-63
2023/04/02 08:01:26;;;;;;;1.27;0.60;;;5.00;33.50;;;;;;5135046;27;20035;-65
2023/04/02 08:03:56;;;;;;;1.75;0.70;;;5.20;31.10;;;;;;5134972;27;20454;-65
2023/04/02 08:06:23;;;;;;;1.30;0.80;;;5.30;38.10;;;;;;5134933;27;20046;-65
2023/04/02 08:08:49;;;;;;;1.15;0.70;;;5.30;31.00;;;;;;5134982;27;20031;-65
2023/04/02 08:11:15;;;;;;;1.98;0.63;;;5.50;46.70;;;;;;5116050;27;20375;-63
2023/04/02 08:13:41;;;;;;;1.55;0.70;;;5.70;68.70;;;;;;5134868;27;20493;-66
2023/04/02 08:16:07;;;;;;;0.85;0.43;;;5.80;10.60;;;;;;5134435;27;20031;-65
2023/04/02 08:18:34;;;;;;;2.30;0.60;;;5.60;1.00;;;;;;5134316;27;20463;-65
2023/04/02 08:21:00;;;;;;;1.23;0.90;;;5.40;1.00;;;;;;5134391;27;20064;-66
2023/04/02 08:23:26;;;;;;;2.50;0.65;;;5.70;1.00;;;;;;5134734;27;20035;-69
2023/04/02 08:25:52;;;;;;;2.38;0.95;;;5.80;1.00;;;;;;5134514;27;20359;-65
2023/04/02 08:28:20;;;;;;;1.90;0.75;;;5.90;1.00;;;;;;5134291;27;20050;-65
2023/04/02 08:30:47;;;;;;;1.40;0.63;;;5.70;1.00;;;;;;5134248;27;20050;-66
2023/04/02 08:33:14;;;;;;;1.00;0.38;;;5.80;1.00;;;;;;5134473;27;20482;-66
2023/04/02 08:35:40;;;;;;;1.58;0.40;;;6.00;1.00;;;;;;5134095;27;20043;-66
2023/04/02 08:38:05;;;;;;;5.03;0.60;;;5.90;1.00;;;;;;5134041;27;20034;-66
2023/04/02 08:40:40;;;;;;;1.80;0.30;;;5.90;1.00;;;;;;5115407;27;20043;-71
2023/04/02 08:43:27;;;;;;;2.97;0.68;;;5.90;1.00;;;;;;5133878;27;20039;-69
2023/04/02 08:46:10;;;;;;;1.00;0.50;;;5.80;1.00;;;;;;5134345;27;20046;-66
2023/04/02 08:48:39;;;;;;;1.67;0.43;;;5.90;1.00;;;;;;5115571;27;20083;-66
2023/04/02 08:51:07;;;;;;;1.52;0.55;;;6.10;1.00;;;;;;5134059;27;20121;-67
2023/04/02 08:53:38;;;;;;;0.65;0.40;;;6.00;1.00;;;;;;5134284;27;20042;-66
2023/04/02 08:56:24;;;;;;;3.42;0.70;;;6.00;1.00;;;;;;5134098;27;20486;-67
2023/04/02 08:58:55;;;;;;;1.77;1.05;;;6.20;1.00;;;;;;5133845;27;20142;-66
2023/04/02 09:01:23;;;;;;;1.55;0.70;;;6.40;1.00;;;;;;5115719;27;20513;-66
2023/04/02 09:03:50;;;;;;;5.00;0.55;;;6.40;1.00;;;;;;5133756;27;20043;-66
2023/04/02 09:06:18;;;;;;;5.13;0.70;;;6.30;1.00;;;;;;5134146;27;20027;-66
2023/04/02 09:08:46;;;;;;;1.48;0.70;;;7.10;1.00;;;;;;5133761;27;20043;-66
2023/04/02 09:11:47;;;;;;;5.13;1.00;;;6.10;1.00;;;;;;5133767;27;20035;-67
2023/04/02 09:14:18;;;;;;;2.88;0.80;;;6.50;99.90;;;;;;5134000;27;20439;-66
2023/04/02 09:16:52;;;;;;;1.13;0.82;;;6.60;99.90;;;;;;5115202;27;20074;-66
2023/04/02 09:19:25;;;;;;;1.23;0.60;;;6.80;1.00;;;;;;5133880;27;20053;-67
2023/04/02 09:22:21;;;;;;;0.93;0.57;;;6.90;99.90;;;;;;5133956;27;20035;-66
2023/04/02 09:24:54;;;;;;;1.95;0.60;;;7.00;99.90;;;;;;5125710;28;20402;-66
2023/04/02 09:27:22;;;;;;;1.90;0.50;;;;;;;;;;5133699;28;20522;-68
2023/04/02 09:29:52;;;;;;;1.90;0.52;;;9.40;99.90;;;;;;5133877;28;20039;-66
2023/04/02 09:32:42;;;;;;;4.38;0.50;;;7.60;99.90;;;;;;5134363;28;20126;-65
2023/04/02 09:35:15;;;;;;;1.42;0.50;;;7.70;99.90;;;;;;5133824;28;20050;-63
2023/04/02 09:37:42;;;;;;;2.47;0.60;;;7.60;99.90;;;;;;5133626;28;20039;-64
2023/04/02 09:40:18;;;;;;;1.65;0.52;;;7.60;99.90;;;;;;5133644;28;20090;-65
2023/04/02 09:42:44;;;;;;;1.15;0.55;;;7.60;99.90;;;;;;5114810;28;20401;-64
2023/04/02 09:45:27;;;;;;;5.25;0.75;;;7.50;99.90;;;;;;5133789;28;20128;-65
2023/04/02 09:47:55;;;;;;;2.95;1.10;;;7.60;99.90;;;;;;5114967;28;20046;-64
2023/04/02 09:50:20;;;;;;;4.18;0.52;;;7.60;99.90;;;;;;5114921;28;20424;-64
2023/04/02 09:52:47;;;;;;;0.75;0.50;;;7.80;99.90;;;;;;5133599;28;20114;-64
2023/04/02 09:55:27;;;;;;;0.77;0.43;;;7.80;99.90;;;;;;5133457;28;20103;-64
2023/04/02 09:58:15;;;;;;;0.30;0.30;;;7.90;99.90;;;;;;5133194;28;20049;-64
2023/04/02 10:00:52;;;;;;;0.60;0.50;;;7.80;6.20;;;;;;5115234;28;20047;-64
2023/04/02 10:03:24;;;;;;;1.55;0.60;;;7.90;38.00;;;;;;5133522;28;20088;-64
2023/04/02 10:06:14;;;;;;;2.20;0.77;;;8.10;99.90;;;;;;5133193;28;20092;-64
2023/04/02 10:08:42;;;;;;;1.98;1.20;;;7.90;70.40;;;;;;5133442;28;20035;-64
2023/04/02 10:11:23;;;;;;;0.68;0.50;;;7.90;1.00;;;;;;5133073;28;20122;-64
2023/04/02 10:14:01;;;;;;;1.25;0.65;;;8.00;99.90;;;;;;5133414;28;20403;-64
2023/04/02 10:16:31;;;;;;;4.05;0.70;;;8.00;69.20;;;;;;5133339;28;20100;-64
2023/04/02 10:18:59;;;;;;;1.20;0.60;;;8.30;1.00;;;;;;5132847;27;20047;-64
2023/04/02 10:21:30;;;;;;;2.08;0.73;;;8.40;1.00;;;;;;5137232;27;20042;-64
2023/04/02 10:23:58;;;;;;;0.75;0.40;;;8.70;1.00;;;;;;5137178;27;20074;-64
2023/04/02 10:26:52;;;;;;;1.30;0.52;;;8.90;1.00;;;;;;5137160;27;20492;-68
2023/04/02 10:29:23;;;;;;;1.42;0.75;;;9.30;1.00;;;;;;5118657;27;20474;-64
2023/04/02 10:32:01;;;;;;;0.70;0.50;;;9.30;99.90;;;;;;5137009;27;20448;-63
2023/04/02 10:34:42;;;;;;;0.88;0.55;;;9.20;1.00;;;;;;5136594;27;20074;-66
2023/04/02 10:37:34;;;;;;;1.55;0.65;;;9.30;99.90;;;;;;5118041;27;20405;-64
2023/04/02 10:40:11;;;;;;;5.38;0.70;;;9.40;37.90;;;;;;5136729;27;20039;-63
2023/04/02 10:42:56;;;;;;;2.20;1.05;;;9.50;1.00;;;;;;5136508;27;20046;-63
2023/04/02 10:45:40;;;;;;;2.15;1.05;;;9.50;99.90;;;;;;5118424;27;20167;-63
2023/04/02 10:48:15;;;;;;;0.43;0.40;;;9.20;1.00;;;;;;5136731;27;20046;-63
2023/04/02 10:51:08;;;;;;;1.80;1.17;;;9.30;1.00;;;;;;5136673;27;20043;-63
2023/04/02 10:54:06;;;;;;;4.78;0.70;;;9.50;99.90;;;;;;5136375;27;20078;-65
2023/04/02 10:56:31;;;;;;;1.30;0.73;;;9.60;99.90;;;;;;5117174;27;20168;-63
2023/04/02 10:59:05;;;;;;;1.17;0.55;;;9.70;99.90;;;;;;5117612;27;20494;-64
2023/04/02 11:01:33;;;;;;;1.05;0.50;;;9.80;99.90;;;;;;5136568;27;20028;-63
2023/04/02 11:04:01;;;;;;;0.50;0.40;;;9.90;1.00;;;;;;5136185;27;20095;-62
2023/04/02 11:06:38;;;;;;;1.00;0.57;;;10.00;1.00;;;;;;5136278;27;20084;-65
2023/04/02 11:09:09;;;;;;;2.83;0.50;;;9.90;99.90;;;;;;5117694;27;20118;-63
2023/04/02 11:11:40;;;;;;;2.03;0.77;;;9.90;99.90;;;;;;5117905;27;20095;-64
2023/04/02 11:14:18;;;;;;;0.80;0.35;;;10.00;99.90;;;;;;5117873;27;20043;-63
2023/04/02 11:16:43;;;;;;;1.00;0.70;;;9.90;99.90;;;;;;5117460;27;20622;-62
2023/04/02 11:19:15;;;;;;;2.60;0.60;;;9.70;99.90;;;;;;5136157;27;20043;-63
2023/04/02 11:22:02;;;;;;;1.05;0.50;;;10.30;30.90;;;;;;5117450;27;20130;-62
2023/04/02 11:24:42;;;;;;;0.80;0.60;;;9.60;99.90;;;;;;5136041;27;20042;-63
2023/04/02 11:27:13;;;;;;;4.53;0.67;;;9.40;99.90;;;;;;5135785;27;20035;-65
2023/04/02 11:29:52;;;;;;;1.17;0.60;;;9.30;99.90;;;;;;5135987;27;20506;-63
2023/04/02 11:32:22;;;;;;;0.85;0.45;;;9.40;1.00;;;;;;5135441;27;20047;-62
2023/04/02 11:34:48;;;;;;;0.95;0.50;;;9.20;99.90;;;;;;5135823;27;20075;-61
2023/04/02 11:37:38;;;;;;;1.00;0.60;;;9.30;1.00;;;;;;5135615;27;20078;-62
2023/04/02 11:40:10;;;;;;;1.15;0.40;;;9.60;99.60;;;;;;5135730;27;20079;-63
2023/04/02 11:42:39;;;;;;;1.25;0.55;;;9.70;99.90;;;;;;5135407;27;20091;-62
2023/04/02 11:45:20;;;;;;;1.55;0.40;;;9.70;11.10;;;;;;5135547;27;20467;-62
2023/04/02 11:48:00;;;;;;;1.00;0.57;;;10.10;99.90;;;;;;5135639;27;20054;-63
2023/04/02 11:50:29;;;;;;;2.22;0.45;;;10.60;1.00;;;;;;5135398;27;20454;-65
2023/04/02 11:52:58;;;;;;;3.60;0.68;;;9.90;54.10;;;;;;5116749;27;20047;-62
2023/04/02 11:55:28;;;;;;;0.85;0.50;;;10.10;99.90;;;;;;5135482;27;20537;-61
2023/04/02 11:58:07;;;;;;;0.52;0.30;;;10.50;99.90;;;;;;5135294;27;20047;-61
2023/04/02 12:01:17;;;;;;;0.50;0.50;;;10.20;99.90;;;;;;5135320;27;20035;-61
2023/04/02 12:04:20;;;;;;;1.10;0.40;;;9.90;1.00;;;;;;5135196;27;20039;-61
2023/04/02 12:07:09;;;;;;;3.83;0.50;;;9.80;1.00;;;;;;5135175;27;20043;-63
2023/04/02 12:09:52;;;;;;;0.40;0.40;;;9.80;14.70;;;;;;5135038;27;20402;-61
2023/04/02 12:12:37;;;;;;;3.65;0.70;;;9.80;99.90;;;;;;5134849;27;20035;-61
2023/04/02 12:15:07;;;;;;;2.83;0.32;;;9.90;99.90;;;;;;5134941;27;20062;-61
2023/04/02 12:17:38;;;;;;;0.60;0.52;;;10.20;99.90;;;;;;5134619;27;20310;-61
2023/04/02 12:20:20;;;;;;;2.58;0.32;;;10.40;99.90;;;;;;5134793;27;20066;-61
2023/04/02 12:22:52;;;;;;;0.30;0.30;;;10.60;99.90;;;;;;5134614;27;20039;-61
2023/04/02 12:25:39;;;;;;;0.75;0.38;;;10.90;99.90;;;;;;5134613;27;20112;-61
2023/04/02 12:28:10;;;;;;;1.48;0.30;;;11.10;99.90;;;;;;5134636;27;20043;-61
2023/04/02 12:30:40;;;;;;;1.65;0.57;;;11.40;31.20;;;;;;5134499;27;20114;-61
2023/04/02 12:33:20;;;;;;;1.10;0.50;;;11.80;99.90;;;;;;5134401;27;20118;-61
2023/04/02 12:35:49;;;;;;;1.35;0.47;;;11.60;99.90;;;;;;5134423;27;20047;-61
2023/04/02 12:38:24;;;;;;;3.78;0.88;;;11.50;37.20;;;;;;5134409;27;20359;-61
2023/04/02 12:41:02;;;;;;;2.10;0.57;;;11.60;99.90;;;;;;5134190;27;20027;-62
2023/04/02 12:43:36;;;;;;;1.17;0.57;;;11.10;1.00;;;;;;5133866;27;20110;-61
2023/04/02 12:46:05;;;;;;;1.38;0.63;;;11.10;99.90;;;;;;5134384;27;20027;-62
2023/04/02 12:48:32;;;;;;;0.90;0.50;;;10.90;99.90;;;;;;5133942;27;20036;-62
2023/04/02 12:51:00;;;;;;;4.05;0.70;;;11.20;99.90;;;;;;5133910;27;20083;-62
2023/04/02 12:53:33;;;;;;;2.35;0.47;;;11.50;1.00;;;;;;5115631;27;20035;-63
2023/04/02 12:55:59;;;;;;;1.27;0.60;;;11.70;99.90;;;;;;5134286;27;20031;-62
2023/04/02 12:58:41;;;;;;;0.70;0.55;;;12.00;99.90;;;;;;5134045;27;20035;-62
2023/04/02 13:01:13;;;;;;;0.80;0.40;;;12.10;99.90;;;;;;5134170;27;20387;-62
2023/04/02 13:03:39;;;;;;;1.77;0.47;;;11.90;99.90;;;;;;5134155;27;20033;-61
2023/04/02 13:06:22;;;;;;;1.08;0.60;;;11.80;99.90;;;;;;5133784;27;20474;-64
2023/04/02 13:08:48;;;;;;;0.30;0.30;;;12.00;99.90;;;;;;5133841;27;20091;-62
2023/04/02 13:11:14;;;;;;;1.98;0.45;;;11.90;28.90;;;;;;5133930;27;20039;-62
2023/04/02 13:13:42;;;;;;;1.77;0.57;;;12.10;91.60;;;;;;5133992;27;20066;-62
2023/04/02 13:16:14;;;;;;;0.40;0.30;;;11.70;1.00;;;;;;5115553;27;20103;-62
2023/04/02 13:18:40;;;;;;;1.00;0.55;;;12.00;1.00;;;;;;5133597;27;20059;-62
2023/04/02 13:21:15;;;;;;;0.88;0.30;;;11.90;20.20;;;;;;5133869;27;20423;-62
2023/04/02 13:23:41;;;;;;;0.30;0.30;;;11.80;1.00;;;;;;5133903;28;20063;-62
2023/04/02 13:26:20;;;;;;;1.35;0.45;;;11.90;1.00;;;;;;5133808;28;20114;-62
2023/04/02 13:29:03;;;;;;;0.60;0.32;;;12.30;1.00;;;;;;5133887;28;20037;-65
2023/04/02 13:31:30;;;;;;;1.23;0.60;;;12.60;1.00;;;;;;5133549;28;20046;-64
2023/04/02 13:33:57;;;;;;;0.45;0.45;;;12.70;1.00;;;;;;5133957;28;20390;-62
2023/04/02 13:36:22;;;;;;;2.40;0.57;;;12.70;1.00;;;;;;5133646;28;20031;-62